createdAt,value
2018-10-17T00:00:20.905Z,61.26
2018-10-17T00:02:48.836Z,61.77
2018-10-17T00:05:17.376Z,61.35
2018-10-17T00:07:45.350Z,61.57
2018-10-17T00:10:14.215Z,61.62
2018-10-17T00:12:42.201Z,61.49
2018-10-17T00:15:10.179Z,61.21
2018-10-17T00:17:38.043Z,61.01
2018-10-17T00:20:10.687Z,60.93
2018-10-17T00:22:38.934Z,60.69
2018-10-17T00:25:07.279Z,61.44
2018-10-17T00:27:35.330Z,61.76
2018-10-17T00:30:04.233Z,61.29
2018-10-17T00:32:32.137Z,61.35
2018-10-17T00:35:00.275Z,61.41
2018-10-17T00:37:28.269Z,61.84
2018-10-17T00:39:56.258Z,61.86
2018-10-17T00:42:24.272Z,62.14
2018-10-17T00:44:52.248Z,62.82
2018-10-17T00:47:20.233Z,62.24
2018-10-17T00:49:48.207Z,62.36
2018-10-17T00:52:16.196Z,62.82
2018-10-17T00:54:44.069Z,62.89
2018-10-17T00:57:11.965Z,62.59
2018-10-17T00:59:39.959Z,62.97
2018-10-17T01:02:07.943Z,62.53
2018-10-17T01:04:35.865Z,63.17
2018-10-17T01:07:04.238Z,63.89
2018-10-17T01:09:32.106Z,63.75
2018-10-17T01:12:00.053Z,63.68
2018-10-17T01:14:28.032Z,63.45
2018-10-17T01:16:56.044Z,62.74
2018-10-17T01:19:23.931Z,62.75
2018-10-17T01:21:51.934Z,63.75
2018-10-17T01:24:19.925Z,63.56
2018-10-17T01:26:47.903Z,63.43
2018-10-17T01:29:15.977Z,63.44
2018-10-17T01:31:44.133Z,62.77
2018-10-17T01:34:12.059Z,62.34
2018-10-17T01:36:40.011Z,62.04
2018-10-17T01:39:09.174Z,62.50
2018-10-17T01:41:37.227Z,62.63
2018-10-17T01:44:05.725Z,62.94
2018-10-17T01:46:33.699Z,63.42
2018-10-17T01:49:01.671Z,64.83
2018-10-17T01:51:29.581Z,65.40
2018-10-17T01:53:57.500Z,65.08
2018-10-17T01:56:25.455Z,65.06
2018-10-17T01:58:53.367Z,64.19
2018-10-17T02:01:21.222Z,63.68
2018-10-17T02:03:49.310Z,63.43
2018-10-17T02:06:17.255Z,63.63
2018-10-17T02:08:45.294Z,64.06
2018-10-17T02:11:13.268Z,63.87
2018-10-17T02:13:41.257Z,63.34
2018-10-17T02:16:09.260Z,62.74
2018-10-17T02:18:37.230Z,63.82
2018-10-17T02:21:05.532Z,63.36
2018-10-17T02:23:33.585Z,63.62
2018-10-17T02:26:01.630Z,65.22
2018-10-17T02:28:29.682Z,65.66
2018-10-17T02:30:57.728Z,66.37
2018-10-17T02:33:25.766Z,66.98
2018-10-17T02:35:53.805Z,68.41
2018-10-17T02:38:21.741Z,68.30
2018-10-17T02:40:49.916Z,69.38
2018-10-17T02:43:18.021Z,70.42
2018-10-17T02:45:46.041Z,72.33
2018-10-17T02:48:13.996Z,73.24
2018-10-17T02:50:42.147Z,73.65
2018-10-17T02:53:10.075Z,75.91
2018-10-17T02:55:37.960Z,76.54
2018-10-17T02:58:05.978Z,76.18
2018-10-17T03:00:34.029Z,76.08
2018-10-17T03:03:02.016Z,75.87
2018-10-17T03:05:29.938Z,75.84
2018-10-17T03:07:58.003Z,75.45
2018-10-17T03:10:27.087Z,74.17
2018-10-17T03:12:55.059Z,73.74
2018-10-17T03:15:23.127Z,72.14
2018-10-17T03:17:51.032Z,71.89
2018-10-17T03:20:19.058Z,73.17
2018-10-17T03:22:47.618Z,72.72
2018-10-17T03:25:15.581Z,73.28
2018-10-17T03:27:44.533Z,73.13
2018-10-17T03:30:12.552Z,72.94
2018-10-17T03:32:40.519Z,74.58
2018-10-17T03:35:08.728Z,74.22
2018-10-17T03:37:36.767Z,75.10
2018-10-17T03:40:05.217Z,75.62
2018-10-17T03:42:33.177Z,75.62
2018-10-17T03:45:01.101Z,76.13
2018-10-17T03:47:29.166Z,76.70
2018-10-17T03:49:57.179Z,76.26
2018-10-17T03:52:25.141Z,76.32
2018-10-17T03:54:53.124Z,76.83
2018-10-17T03:57:21.043Z,76.47
2018-10-17T03:59:49.079Z,75.79
2018-10-17T04:02:16.997Z,74.92
2018-10-17T04:04:45.340Z,73.90
2018-10-17T04:07:13.367Z,74.95
2018-10-17T04:09:41.314Z,76.42
2018-10-17T04:12:09.226Z,75.70
2018-10-17T04:14:37.230Z,75.19
2018-10-17T04:17:05.296Z,74.84
2018-10-17T04:19:33.385Z,75.80
2018-10-17T04:22:01.389Z,77.43
2018-10-17T04:24:29.453Z,76.22
2018-10-17T04:26:57.528Z,76.29
2018-10-17T04:29:25.517Z,76.87
2018-10-17T04:31:53.407Z,76.03
2018-10-17T04:34:21.360Z,76.19
2018-10-17T04:36:49.352Z,76.09
2018-10-17T04:39:17.309Z,75.93
2018-10-17T04:41:45.182Z,76.01
2018-10-17T04:44:15.006Z,76.50
2018-10-17T04:46:44.161Z,75.59
2018-10-17T04:49:12.250Z,74.82
2018-10-17T04:51:40.138Z,74.40
2018-10-17T04:54:08.155Z,74.56
2018-10-17T04:56:36.098Z,75.70
2018-10-17T04:59:04.177Z,76.52
2018-10-17T05:01:32.118Z,77.00
2018-10-17T05:04:01.190Z,75.65
2018-10-17T05:06:29.814Z,76.60
2018-10-17T05:08:57.749Z,77.37
2018-10-17T05:11:25.695Z,77.20
2018-10-17T05:13:53.960Z,73.77
2018-10-17T05:16:22.624Z,70.68
2018-10-17T05:18:50.710Z,68.48
2018-10-17T05:21:19.058Z,67.73
2018-10-17T05:23:47.195Z,67.40
2018-10-17T05:26:21.523Z,66.48
2018-10-17T05:28:50.172Z,66.23
2018-10-17T05:31:18.206Z,66.30
2018-10-17T05:33:46.350Z,67.20
2018-10-17T05:36:14.419Z,68.96
2018-10-17T05:38:49.175Z,71.79
2018-10-17T05:41:17.122Z,71.95
2018-10-17T05:43:45.121Z,71.23
2018-10-17T05:46:13.059Z,70.31
2018-10-17T05:48:41.266Z,70.15
2018-10-17T05:51:10.382Z,69.11
2018-10-17T05:53:39.518Z,70.46
2018-10-17T05:56:08.464Z,73.25
2018-10-17T05:58:36.887Z,72.63
2018-10-17T06:01:05.279Z,71.51
2018-10-17T06:03:33.322Z,69.42
2018-10-17T06:06:03.400Z,68.91
2018-10-17T06:08:32.400Z,68.59
2018-10-17T06:11:01.743Z,68.50
2018-10-17T06:13:30.333Z,69.28
2018-10-17T06:15:58.566Z,68.61
2018-10-17T06:18:29.535Z,69.29
2018-10-17T06:20:57.601Z,67.73
2018-10-17T06:23:25.606Z,66.61
2018-10-17T06:25:53.873Z,66.08
2018-10-17T06:28:21.939Z,66.51
2018-10-17T06:30:50.514Z,66.54
2018-10-17T06:33:26.058Z,65.30
2018-10-17T06:35:59.294Z,65.50
2018-10-17T06:38:27.214Z,65.27
2018-10-17T06:40:55.405Z,65.36
2018-10-17T06:43:23.465Z,66.78
2018-10-17T06:45:52.001Z,68.48
2018-10-17T06:48:20.554Z,69.27
2018-10-17T06:50:49.003Z,69.73
2018-10-17T06:53:17.807Z,70.09
2018-10-17T06:55:45.650Z,69.00
2018-10-17T06:58:13.717Z,69.14
2018-10-17T07:00:41.769Z,68.66
2018-10-17T07:03:09.745Z,67.83
2018-10-17T07:05:39.080Z,67.94
2018-10-17T07:08:07.044Z,67.14
2018-10-17T07:10:36.193Z,66.28
2018-10-17T07:13:04.456Z,65.46
2018-10-17T07:15:33.123Z,65.18
2018-10-17T07:18:00.953Z,64.61
2018-10-17T07:20:29.911Z,62.57
2018-10-17T07:22:57.984Z,61.52
2018-10-17T07:25:26.001Z,61.38
2018-10-17T07:27:54.020Z,60.86
2018-10-17T07:30:22.081Z,59.88
2018-10-17T07:32:50.165Z,59.87
2018-10-17T07:35:18.230Z,59.39
2018-10-17T07:37:46.667Z,59.09
2018-10-17T07:40:21.332Z,58.60
2018-10-17T07:42:49.927Z,59.27
2018-10-17T07:45:18.047Z,59.57
2018-10-17T07:47:46.067Z,60.38
2018-10-17T07:50:14.087Z,58.96
2018-10-17T07:52:42.314Z,58.78
2018-10-17T07:55:11.676Z,59.28
2018-10-17T07:57:39.653Z,58.21
2018-10-17T08:00:10.566Z,57.83
2018-10-17T08:02:38.831Z,56.72
2018-10-17T08:05:07.106Z,55.69
2018-10-17T08:07:35.059Z,55.38
2018-10-17T08:10:03.701Z,54.84
2018-10-17T08:12:31.801Z,54.28
2018-10-17T08:14:59.840Z,54.48
2018-10-17T08:17:28.718Z,53.57
2018-10-17T08:19:56.714Z,53.06
2018-10-17T08:22:24.765Z,53.13
2018-10-17T08:24:52.770Z,54.04
2018-10-17T08:27:20.702Z,54.01
2018-10-17T08:29:48.716Z,53.18
2018-10-17T08:32:16.671Z,52.04
2018-10-17T08:34:44.666Z,52.01
2018-10-17T08:37:14.560Z,50.70
2018-10-17T08:39:43.092Z,51.36
2018-10-17T08:42:11.050Z,50.25
2018-10-17T08:44:39.062Z,50.74
2018-10-17T08:47:07.142Z,49.51
2018-10-17T08:49:37.019Z,48.03
2018-10-17T08:52:12.051Z,48.49
2018-10-17T08:55:12.198Z,46.55
2018-10-17T08:59:20.176Z,47.21
2018-10-17T09:04:57.744Z,46.06
2018-10-17T09:07:25.879Z,45.27
2018-10-17T09:09:54.725Z,43.88
2018-10-17T09:12:22.788Z,43.33
2018-10-17T09:14:51.065Z,42.72
2018-10-17T09:17:19.057Z,40.45
2018-10-17T09:19:49.275Z,41.30
2018-10-17T09:22:17.566Z,41.71
2018-10-17T09:24:45.223Z,41.71
2018-10-17T09:27:13.317Z,40.27
2018-10-17T09:29:41.320Z,40.17
2018-10-17T09:32:09.518Z,40.66
2018-10-17T09:34:37.916Z,40.58
2018-10-17T09:37:07.063Z,40.32
2018-10-17T09:39:35.179Z,38.96
2018-10-17T09:42:03.240Z,37.52
2018-10-17T09:44:31.511Z,38.26
2018-10-17T09:46:59.557Z,38.06
2018-10-17T09:49:27.651Z,36.72
2018-10-17T09:51:55.693Z,36.37
2018-10-17T09:54:23.754Z,36.76
2018-10-17T09:56:55.250Z,36.79
2018-10-17T09:59:23.499Z,36.35
2018-10-17T10:01:52.431Z,36.27
2018-10-17T10:04:21.124Z,34.86
2018-10-17T10:06:49.136Z,33.27
2018-10-17T10:09:17.306Z,32.75
2018-10-17T10:11:45.995Z,31.16
2018-10-17T10:14:13.933Z,31.21
2018-10-17T10:16:42.126Z,29.11
2018-10-17T10:19:10.308Z,29.43
2018-10-17T10:21:38.383Z,29.05
2018-10-17T10:24:06.611Z,26.51
2018-10-17T10:26:34.665Z,26.40
2018-10-17T10:29:02.850Z,27.37
2018-10-17T10:31:31.130Z,27.47
2018-10-17T10:33:59.226Z,27.24
2018-10-17T10:36:28.929Z,25.32
2018-10-17T10:38:56.996Z,26.00
2018-10-17T10:41:47.322Z,27.29
2018-10-17T10:44:15.398Z,27.96
2018-10-17T10:46:43.490Z,27.49
2018-10-17T10:49:11.579Z,26.82
2018-10-17T10:51:39.721Z,26.89
2018-10-17T10:54:07.788Z,28.69
2018-10-17T10:56:35.869Z,28.99
2018-10-17T10:59:03.997Z,29.26
2018-10-17T11:01:31.943Z,29.46
2018-10-17T11:04:00.086Z,29.22
2018-10-17T11:06:28.085Z,28.51
2018-10-17T11:08:56.102Z,28.92
2018-10-17T11:11:24.152Z,28.39
2018-10-17T11:14:00.196Z,28.95
2018-10-17T11:16:28.249Z,28.65
2018-10-17T11:18:56.970Z,28.06
2018-10-17T11:21:24.967Z,28.83
2018-10-17T11:23:53.189Z,29.06
2018-10-17T11:26:21.236Z,28.62
2018-10-17T11:28:49.258Z,27.62
2018-10-17T11:31:17.367Z,27.31
2018-10-17T11:33:45.388Z,27.60
2018-10-17T11:36:13.404Z,27.95
2018-10-17T11:38:41.344Z,27.75
2018-10-17T11:41:09.380Z,27.87
2018-10-17T11:43:37.423Z,27.54
2018-10-17T11:46:05.369Z,26.81
2018-10-17T11:48:33.386Z,27.37
2018-10-17T11:51:01.576Z,28.10
2018-10-17T11:53:29.656Z,28.46
2018-10-17T11:55:57.907Z,28.64
2018-10-17T11:58:28.556Z,28.89
2018-10-17T12:00:57.007Z,27.91
2018-10-17T12:03:24.952Z,27.48
2018-10-17T12:05:53.434Z,26.80
2018-10-17T12:08:22.043Z,26.50
2018-10-17T12:10:50.818Z,27.26
2018-10-17T12:13:18.731Z,26.61
2018-10-17T12:15:47.213Z,27.83
2018-10-17T12:18:16.102Z,27.35
2018-10-17T12:20:44.189Z,27.25
2018-10-17T12:23:14.404Z,27.36
2018-10-17T12:25:46.087Z,27.29
2018-10-17T12:28:14.149Z,27.83
2018-10-17T12:30:42.094Z,27.10
2018-10-17T12:33:12.032Z,27.16
2018-10-17T12:35:40.153Z,26.84
2018-10-17T12:38:08.948Z,26.66
2018-10-17T12:40:37.013Z,27.58
2018-10-17T12:43:05.076Z,27.33
2018-10-17T12:45:33.623Z,27.32
2018-10-17T12:48:01.591Z,27.30
2018-10-17T12:50:30.559Z,26.49
2018-10-17T12:52:59.179Z,26.16
2018-10-17T12:55:27.126Z,26.17
2018-10-17T12:57:56.215Z,27.15
2018-10-17T13:00:25.868Z,28.10
2018-10-17T13:02:54.863Z,28.48
2018-10-17T13:05:22.834Z,27.32
2018-10-17T13:07:50.964Z,27.82
2018-10-17T13:10:19.519Z,27.75
2018-10-17T13:12:50.718Z,27.87
2018-10-17T13:15:18.871Z,28.05
2018-10-17T13:17:48.886Z,28.31
2018-10-17T13:20:17.183Z,28.36
2018-10-17T13:22:51.139Z,28.14
2018-10-17T13:25:19.164Z,28.49
2018-10-17T13:27:47.227Z,28.95
2018-10-17T13:30:15.398Z,29.05
2018-10-17T13:32:43.481Z,28.16
2018-10-17T13:35:11.490Z,28.53
2018-10-17T13:37:39.787Z,28.84
2018-10-17T13:40:08.049Z,29.31
2018-10-17T13:42:42.605Z,28.89
2018-10-17T13:45:10.550Z,28.89
2018-10-17T13:47:38.552Z,28.52
2018-10-17T13:50:07.937Z,28.56
2018-10-17T13:55:49.612Z,29.15
2018-10-17T13:58:18.509Z,29.00
2018-10-17T14:00:46.564Z,29.54
2018-10-17T14:03:14.498Z,29.68
2018-10-17T14:05:42.467Z,30.14
2018-10-17T14:08:10.590Z,29.58
2018-10-17T14:10:38.685Z,28.53
2018-10-17T14:13:06.723Z,28.97
2018-10-17T14:15:34.714Z,27.81
2018-10-17T14:18:02.814Z,27.13
2018-10-17T14:20:31.122Z,28.06
2018-10-17T14:22:59.120Z,27.78
2018-10-17T14:25:29.774Z,27.36
2018-10-17T14:27:57.906Z,27.48
2018-10-17T14:30:26.084Z,27.16
2018-10-17T14:32:54.115Z,27.59
2018-10-17T14:35:22.073Z,28.44
2018-10-17T14:37:50.125Z,27.67
2018-10-17T14:40:18.324Z,27.77
2018-10-17T14:42:46.377Z,28.76
2018-10-17T14:45:14.666Z,27.76
2018-10-17T14:47:42.843Z,28.20
2018-10-17T14:50:10.877Z,26.94
2018-10-17T14:52:38.940Z,27.43
2018-10-17T14:55:07.791Z,26.51
2018-10-17T14:57:35.782Z,27.50
2018-10-17T15:00:04.211Z,27.92
2018-10-17T15:02:32.756Z,27.50
2018-10-17T15:05:03.110Z,29.64
2018-10-17T15:07:31.226Z,31.03
2018-10-17T15:09:59.490Z,31.18
2018-10-17T15:12:27.454Z,32.20
2018-10-17T15:14:55.484Z,32.63
2018-10-17T15:17:23.683Z,33.12
2018-10-17T15:19:51.722Z,33.47
2018-10-17T15:22:19.827Z,34.27
2018-10-17T15:24:48.013Z,33.97
2018-10-17T15:27:16.223Z,33.85
2018-10-17T15:29:44.362Z,33.61
2018-10-17T15:32:12.487Z,33.88
2018-10-17T15:34:40.921Z,34.60
2018-10-17T15:37:09.120Z,34.94
2018-10-17T15:39:37.127Z,34.60
2018-10-17T15:42:05.145Z,35.05
2018-10-17T15:44:33.488Z,34.67
2018-10-17T15:47:02.021Z,35.29
2018-10-17T15:49:30.034Z,35.69
2018-10-17T15:51:58.194Z,35.93
2018-10-17T15:54:27.025Z,36.26
2018-10-17T15:56:55.009Z,35.57
2018-10-17T15:59:24.931Z,36.14
2018-10-17T16:01:52.914Z,36.06
2018-10-17T16:04:21.017Z,36.41
2018-10-17T16:06:49.187Z,36.35
2018-10-17T16:09:17.210Z,37.17
2018-10-17T16:11:45.365Z,37.47
2018-10-17T16:14:13.331Z,37.32
2018-10-17T16:16:42.175Z,37.66
2018-10-17T16:19:10.325Z,38.04
2018-10-17T16:21:38.276Z,38.04
2018-10-17T16:24:06.279Z,38.00
2018-10-17T16:26:34.260Z,38.18
2018-10-17T16:29:02.350Z,38.07
2018-10-17T16:31:30.402Z,38.38
2018-10-17T16:33:58.332Z,38.19
2018-10-17T16:36:26.290Z,38.82
2018-10-17T16:38:54.172Z,39.06
2018-10-17T16:41:22.302Z,39.23
2018-10-17T16:43:50.527Z,38.66
2018-10-17T16:46:18.563Z,38.75
2018-10-17T16:48:46.560Z,39.32
2018-10-17T16:51:14.545Z,38.98
2018-10-17T16:53:43.225Z,39.23
2018-10-17T16:56:11.183Z,39.01
2018-10-17T16:58:39.238Z,38.95
2018-10-17T17:01:07.178Z,39.57
2018-10-17T17:03:35.274Z,39.37
2018-10-17T17:06:03.340Z,39.22
2018-10-17T17:08:31.384Z,39.19
2018-10-17T17:10:59.654Z,38.93
2018-10-17T17:13:27.654Z,39.29
2018-10-17T17:15:56.320Z,39.47
2018-10-17T17:18:24.231Z,39.32
2018-10-17T17:20:53.334Z,39.30
2018-10-17T17:23:21.435Z,39.40
2018-10-17T17:25:49.511Z,39.89
2018-10-17T17:28:17.526Z,40.10
2018-10-17T17:30:45.599Z,40.30
2018-10-17T17:33:13.726Z,40.32
2018-10-17T17:35:41.724Z,40.71
2018-10-17T17:38:09.822Z,41.03
2018-10-17T17:40:37.919Z,41.08
2018-10-17T17:43:05.945Z,41.21
2018-10-17T17:45:34.242Z,41.18
2018-10-17T17:48:02.191Z,41.52
2018-10-17T17:50:30.130Z,41.94
2018-10-17T17:52:58.640Z,42.05
2018-10-17T17:55:26.781Z,42.69
2018-10-17T17:57:55.434Z,42.47
2018-10-17T18:00:23.930Z,42.77
2018-10-17T18:02:51.900Z,42.53
2018-10-17T18:05:20.104Z,42.81
2018-10-17T18:07:49.051Z,43.19
2018-10-17T18:10:17.449Z,43.52
2018-10-17T18:12:45.445Z,43.63
2018-10-17T18:15:13.384Z,44.08
2018-10-17T18:17:41.350Z,44.03
2018-10-17T18:20:09.998Z,44.11
2018-10-17T18:22:38.025Z,43.69
2018-10-17T18:25:06.355Z,43.88
2018-10-17T18:27:34.747Z,44.22
2018-10-17T18:30:02.808Z,44.34
2018-10-17T18:32:30.740Z,44.65
2018-10-17T18:34:58.779Z,44.85
2018-10-17T18:37:27.174Z,44.79
2018-10-17T18:39:55.443Z,44.82
2018-10-17T18:42:23.369Z,44.38
2018-10-17T18:44:51.356Z,44.60
2018-10-17T18:47:19.286Z,44.31
2018-10-17T18:49:47.327Z,44.04
2018-10-17T18:52:15.415Z,44.33
2018-10-17T18:54:43.317Z,44.73
2018-10-17T18:57:11.344Z,44.19
2018-10-17T18:59:39.423Z,45.29
2018-10-17T19:02:07.507Z,45.72
2018-10-17T19:04:35.678Z,45.48
2018-10-17T19:07:06.974Z,45.34
2018-10-17T19:09:35.000Z,45.00
2018-10-17T19:12:03.084Z,45.25
2018-10-17T19:14:31.180Z,45.41
2018-10-17T19:16:59.125Z,45.15
2018-10-17T19:19:27.504Z,44.49
2018-10-17T19:21:55.555Z,45.09
2018-10-17T19:24:23.531Z,45.55
2018-10-17T19:26:52.605Z,45.63
2018-10-17T19:29:20.714Z,45.93
2018-10-17T19:31:48.977Z,46.22
2018-10-17T19:34:17.091Z,45.93
2018-10-17T19:36:45.166Z,46.20
2018-10-17T19:39:13.411Z,46.79
2018-10-17T19:41:41.860Z,46.92
2018-10-17T19:44:09.806Z,47.12
2018-10-17T19:46:37.806Z,47.17
2018-10-17T19:49:06.202Z,46.83
2018-10-17T19:51:34.138Z,47.13
2018-10-17T19:54:02.154Z,46.99
2018-10-17T19:56:30.146Z,46.64
2018-10-17T19:58:58.215Z,46.68
2018-10-17T20:01:27.022Z,46.55
2018-10-17T20:03:54.977Z,46.95
2018-10-17T20:06:22.996Z,46.12
2018-10-17T20:08:50.949Z,46.20
2018-10-17T20:14:48.468Z,46.13
2018-10-17T20:17:16.514Z,45.94
2018-10-17T20:19:44.683Z,47.16
2018-10-17T20:22:12.725Z,46.35
2018-10-17T20:24:41.089Z,46.90
2018-10-17T20:27:09.790Z,46.95
2018-10-17T20:29:37.842Z,47.00
2018-10-17T20:32:06.429Z,47.40
2018-10-17T20:34:34.375Z,46.98
2018-10-17T20:37:02.475Z,46.42
2018-10-17T20:39:30.523Z,45.79
2018-10-17T20:41:58.679Z,45.95
2018-10-17T20:44:26.568Z,46.46
2018-10-17T20:46:54.474Z,45.95
2018-10-17T20:49:22.419Z,46.75
2018-10-17T20:51:50.382Z,46.81
2018-10-17T20:54:18.484Z,47.17
2018-10-17T20:56:46.527Z,46.99
2018-10-17T20:59:14.501Z,46.76
2018-10-17T21:01:42.494Z,47.38
2018-10-17T21:04:10.572Z,47.75
2018-10-17T21:06:38.709Z,48.34
2018-10-17T21:09:10.663Z,48.06
2018-10-17T21:11:38.693Z,48.35
2018-10-17T21:14:06.722Z,48.63
2018-10-17T21:16:34.694Z,48.81
2018-10-17T21:19:02.657Z,48.96
2018-10-17T21:21:30.617Z,49.14
2018-10-17T21:24:01.615Z,48.94
2018-10-17T21:26:30.166Z,48.90
2018-10-17T21:28:58.118Z,49.08
2018-10-17T21:31:26.106Z,48.57
2018-10-17T21:33:54.133Z,48.43
2018-10-17T21:36:22.436Z,49.30
2018-10-17T21:38:50.463Z,49.10
2018-10-17T21:41:18.438Z,49.20
2018-10-17T21:43:46.428Z,48.91
2018-10-17T21:46:14.514Z,48.90
2018-10-17T21:48:42.447Z,49.03
2018-10-17T21:51:10.498Z,48.92
2018-10-17T21:53:38.435Z,49.06
2018-10-17T21:56:06.533Z,48.77
2018-10-17T21:58:34.556Z,48.54
2018-10-17T22:01:02.709Z,48.56
2018-10-17T22:03:30.691Z,48.93
2018-10-17T22:05:59.026Z,49.49
2018-10-17T22:08:27.068Z,49.57
2018-10-17T22:10:55.330Z,49.97
2018-10-17T22:13:23.226Z,50.40
2018-10-17T22:15:51.313Z,50.65
2018-10-17T22:18:19.632Z,51.15
2018-10-17T22:20:47.830Z,51.75
2018-10-17T22:23:15.816Z,51.39
2018-10-17T22:25:43.766Z,51.13
2018-10-17T22:28:11.752Z,51.09
2018-10-17T22:30:39.641Z,51.18
2018-10-17T22:33:07.646Z,50.98
2018-10-17T22:35:35.591Z,50.88
2018-10-17T22:38:03.594Z,51.72
2018-10-17T22:40:31.578Z,51.89
2018-10-17T22:42:59.796Z,52.60
2018-10-17T22:45:28.198Z,52.64
2018-10-17T22:47:56.364Z,52.60
2018-10-17T22:50:24.374Z,52.04
2018-10-17T22:52:52.360Z,52.28
2018-10-17T22:55:20.327Z,52.77
2018-10-17T22:57:48.346Z,53.37
2018-10-17T23:00:16.307Z,54.13
2018-10-17T23:02:44.354Z,53.76
2018-10-17T23:05:12.419Z,53.61
2018-10-17T23:07:40.479Z,54.01
2018-10-17T23:10:08.471Z,53.38
2018-10-17T23:12:36.602Z,53.62
2018-10-17T23:15:08.478Z,53.66
2018-10-17T23:17:36.519Z,53.47
2018-10-17T23:20:08.434Z,54.49
2018-10-17T23:22:36.616Z,54.95
2018-10-17T23:25:05.731Z,54.93
2018-10-17T23:27:33.746Z,55.74
2018-10-17T23:30:01.913Z,54.81
2018-10-17T23:32:29.899Z,55.16
2018-10-17T23:34:57.888Z,55.12
2018-10-17T23:37:25.851Z,56.21
2018-10-17T23:39:53.974Z,56.64
2018-10-17T23:42:22.016Z,56.85
2018-10-17T23:44:50.038Z,56.71
2018-10-17T23:47:18.166Z,56.67
2018-10-17T23:49:46.262Z,57.04
2018-10-17T23:52:14.637Z,55.97
2018-10-17T23:54:42.638Z,56.06
2018-10-17T23:57:10.551Z,56.07
2018-10-17T23:59:38.522Z,55.47
